createdAt,value
2022-09-30T00:10:05.587Z,19.5
2022-09-30T00:25:06.795Z,19.4
2022-09-30T00:40:03.880Z,19.4
2022-09-30T01:00:04.897Z,19.4
2022-09-30T01:30:06.855Z,19.4
2022-09-30T02:00:06.680Z,19.4
2022-09-30T02:15:03.655Z,19.4
2022-09-30T02:30:03.484Z,19.3
2022-09-30T02:50:02.431Z,19.3
2022-09-30T03:05:02.895Z,19.3
2022-09-30T03:20:06.757Z,19.3
2022-09-30T03:35:06.754Z,19.3
2022-09-30T04:05:02.624Z,19.3
2022-09-30T04:35:03.371Z,19.3
2022-09-30T04:50:06.676Z,19.5
2022-09-30T05:05:06.634Z,19.6
2022-09-30T05:20:02.528Z,19.9
2022-09-30T05:35:05.416Z,20.1
2022-09-30T05:50:03.468Z,20.4
2022-09-30T06:05:03.739Z,20.7
2022-09-30T06:20:03.517Z,21
2022-09-30T06:35:03.773Z,21.3
2022-09-30T06:50:03.657Z,21.5
2022-09-30T07:05:05.858Z,21.6
2022-09-30T07:20:04.467Z,21.7
2022-09-30T07:50:06.781Z,21.8
2022-09-30T08:05:04.748Z,21.8
2022-09-30T08:20:04.880Z,21.8
2022-09-30T08:35:05.527Z,21.8
2022-09-30T09:05:02.453Z,21.7
2022-09-30T09:40:02.586Z,21.6
2022-09-30T09:55:02.564Z,21.5
2022-09-30T10:30:02.867Z,21.4
2022-09-30T10:50:02.833Z,21.4
2022-09-30T11:05:06.808Z,21.3
2022-09-30T11:25:06.337Z,21.3
2022-09-30T11:40:06.878Z,21.2
2022-09-30T11:55:06.357Z,21.1
2022-09-30T12:10:05.809Z,21.1
2022-09-30T12:40:06.880Z,21.2
2022-09-30T13:10:04.830Z,21.3
2022-09-30T13:25:05.448Z,21.3
2022-09-30T13:55:05.545Z,21.2
2022-09-30T14:10:03.539Z,21.3
2022-09-30T14:25:04.847Z,21.3
2022-09-30T14:55:06.442Z,21.5
2022-09-30T15:10:05.362Z,21.6
2022-09-30T15:25:05.480Z,21.7
2022-09-30T15:55:03.521Z,21.6
2022-09-30T16:10:03.419Z,21.6
2022-09-30T16:40:06.827Z,21.4
2022-09-30T16:55:06.705Z,21.3
2022-09-30T17:25:02.627Z,21.4
2022-09-30T17:45:03.548Z,21.3
2022-09-30T18:00:06.817Z,21.3
2022-09-30T18:15:03.801Z,21.2
2022-09-30T18:30:03.531Z,21.1
2022-09-30T18:45:02.862Z,20.9
2022-09-30T19:00:02.612Z,20.6
2022-09-30T19:15:02.438Z,20.4
2022-09-30T19:35:05.530Z,20.2
2022-09-30T19:55:03.780Z,20
2022-09-30T20:10:02.366Z,19.8
2022-09-30T20:25:02.733Z,19.6
2022-09-30T20:45:05.720Z,19.5
2022-09-30T21:00:03.758Z,19.4
2022-09-30T21:15:05.446Z,19.3
2022-09-30T21:30:03.570Z,19.2
2022-09-30T22:00:02.748Z,19.2
2022-09-30T22:15:06.787Z,19.2
2022-09-30T22:30:04.784Z,19.2
2022-09-30T23:00:06.367Z,19.2
2022-09-30T23:30:04.396Z,19.2
2022-09-30T23:50:04.677Z,19.2
